createdAt,value
2022-09-15T00:00:43.610Z,9.278246
2022-09-15T00:01:43.644Z,9.278245
2022-09-15T00:02:43.616Z,9.278147
2022-09-15T00:03:43.582Z,9.278217
2022-09-15T00:04:43.542Z,9.278231
2022-09-15T00:05:43.530Z,9.278228
2022-09-15T00:06:43.537Z,9.278271
2022-09-15T00:07:43.520Z,9.278285
2022-09-15T00:08:43.502Z,9.278349
2022-09-15T00:09:43.458Z,9.278367
2022-09-15T00:10:43.461Z,9.278252
2022-09-15T00:11:43.467Z,9.278394
2022-09-15T00:12:43.406Z,9.278306
2022-09-15T00:13:43.446Z,9.278347
2022-09-15T00:14:43.367Z,9.278251
2022-09-15T00:15:43.415Z,9.278076
2022-09-15T00:16:43.439Z,9.278249
2022-09-15T00:17:43.329Z,9.278242
2022-09-15T00:18:43.326Z,9.278064
2022-09-15T00:19:43.303Z,9.278295
2022-09-15T00:20:43.287Z,9.278299
2022-09-15T00:21:43.290Z,9.278198
2022-09-15T00:22:43.238Z,9.278388
2022-09-15T00:23:43.218Z,9.278440
2022-09-15T00:24:43.201Z,9.278350
2022-09-15T00:25:43.187Z,9.278386
2022-09-15T00:26:43.207Z,9.278292
2022-09-15T00:27:43.153Z,9.278170
2022-09-15T00:28:43.138Z,9.278324
2022-09-15T00:29:43.146Z,9.278373
2022-09-15T00:30:43.235Z,9.278301
2022-09-15T00:31:43.173Z,9.278294
2022-09-15T00:32:43.068Z,9.278354
2022-09-15T00:33:43.059Z,9.278426
2022-09-15T00:34:43.056Z,9.278451
2022-09-15T00:35:43.026Z,9.278337
2022-09-15T00:36:43.034Z,9.278362
2022-09-15T00:37:42.987Z,9.278340
2022-09-15T00:38:43.025Z,9.278297
2022-09-15T00:39:42.995Z,9.278410
2022-09-15T00:40:42.981Z,9.278447
2022-09-15T00:41:43.008Z,9.278286
2022-09-15T00:42:42.912Z,9.278070
2022-09-15T00:43:42.878Z,9.277972
2022-09-15T00:44:42.886Z,9.278202
2022-09-15T00:45:42.915Z,9.278424
2022-09-15T00:46:42.859Z,9.278384
2022-09-15T00:47:42.811Z,9.278329
2022-09-15T00:48:42.884Z,9.278276
2022-09-15T00:49:42.784Z,9.278245
2022-09-15T00:50:42.768Z,9.278273
2022-09-15T00:51:42.840Z,9.278346
2022-09-15T00:52:42.732Z,9.278292
2022-09-15T00:53:42.713Z,9.278238
2022-09-15T00:54:42.698Z,9.278400
2022-09-15T00:55:42.693Z,9.278341
2022-09-15T00:56:42.714Z,9.278412
2022-09-15T00:57:42.649Z,9.278384
2022-09-15T00:58:42.620Z,9.278324
2022-09-15T00:59:42.619Z,9.278291
2022-09-15T01:00:42.660Z,9.278286
2022-09-15T01:01:42.685Z,9.278293
2022-09-15T01:02:42.661Z,9.278331
2022-09-15T01:03:42.645Z,9.278363
2022-09-15T01:04:42.534Z,9.278255
2022-09-15T01:05:42.521Z,9.278218
2022-09-15T01:06:42.524Z,9.278246
2022-09-15T01:07:42.478Z,9.278200
2022-09-15T01:08:42.494Z,9.278281
2022-09-15T01:09:42.447Z,9.278305
2022-09-15T01:10:42.427Z,9.278211
2022-09-15T01:11:42.408Z,9.278265
2022-09-15T01:12:42.459Z,9.278399
2022-09-15T01:13:42.421Z,9.278310
2022-09-15T01:14:42.374Z,9.278337
2022-09-15T01:15:42.355Z,9.278327
2022-09-15T01:16:42.392Z,9.278337
2022-09-15T01:17:42.339Z,9.278300
2022-09-15T01:18:42.291Z,9.278316
2022-09-15T01:19:42.281Z,9.278339
2022-09-15T01:20:42.266Z,9.278420
2022-09-15T01:21:42.263Z,9.278516
2022-09-15T01:22:42.246Z,9.278412
2022-09-15T01:23:42.202Z,9.278346
2022-09-15T01:24:42.208Z,9.278352
2022-09-15T01:25:42.169Z,9.278363
2022-09-15T01:26:42.158Z,9.278333
2022-09-15T01:27:43.129Z,9.278377
2022-09-15T01:28:43.825Z,9.278411
2022-09-15T01:29:45.749Z,9.278365
2022-09-15T01:30:42.094Z,9.278337
2022-09-15T01:31:42.135Z,9.278365
2022-09-15T01:32:42.085Z,9.278361
2022-09-15T01:33:42.041Z,9.278346
2022-09-15T01:34:42.017Z,9.278391
2022-09-15T01:35:42.064Z,9.278331
2022-09-15T01:36:41.985Z,9.278254
2022-09-15T01:37:42.012Z,9.278288
2022-09-15T01:38:42.024Z,9.278242
2022-09-15T01:39:41.932Z,9.278377
2022-09-15T01:40:41.922Z,9.278395
2022-09-15T01:41:41.947Z,9.278354
2022-09-15T01:42:41.879Z,9.278176
2022-09-15T01:43:41.878Z,9.278040
2022-09-15T01:44:41.851Z,9.278038
2022-09-15T01:45:41.877Z,9.278323
2022-09-15T01:46:41.938Z,9.278321
2022-09-15T01:47:41.806Z,9.278244
2022-09-15T01:48:41.866Z,9.278280
2022-09-15T01:49:41.763Z,9.278315
2022-09-15T01:50:41.749Z,9.278318
2022-09-15T01:51:41.767Z,9.278340
2022-09-15T01:52:41.723Z,9.278321
2022-09-15T01:53:41.789Z,9.278250
2022-09-15T01:54:41.678Z,9.278238
2022-09-15T01:55:41.676Z,9.278270
2022-09-15T01:56:41.645Z,9.278378
2022-09-15T01:57:41.660Z,9.278211
2022-09-15T01:58:41.650Z,9.278346
2022-09-15T01:59:41.612Z,9.278368
2022-09-15T02:00:41.583Z,9.278276
2022-09-15T02:01:41.685Z,9.278315
2022-09-15T02:02:41.553Z,9.278373
2022-09-15T02:03:41.536Z,9.278343
2022-09-15T02:04:41.530Z,9.278411
2022-09-15T02:05:41.516Z,9.278332
2022-09-15T02:06:41.476Z,9.278319
2022-09-15T02:07:41.493Z,9.278426
2022-09-15T02:08:41.605Z,9.278253
2022-09-15T02:09:41.426Z,9.278235
2022-09-15T02:10:41.418Z,9.278386
2022-09-15T02:11:41.400Z,9.278199
2022-09-15T02:12:41.459Z,9.278186
2022-09-15T02:13:41.360Z,9.278392
2022-09-15T02:14:41.359Z,9.278468
2022-09-15T02:15:41.321Z,9.278484
2022-09-15T02:16:41.349Z,9.278339
2022-09-15T02:17:41.338Z,9.278355
2022-09-15T02:18:41.328Z,9.278265
2022-09-15T02:19:41.368Z,9.278246
2022-09-15T02:20:41.239Z,9.278330
2022-09-15T02:21:41.220Z,9.278425
2022-09-15T02:22:41.242Z,9.278306
2022-09-15T02:23:41.276Z,9.278347
2022-09-15T02:24:41.170Z,9.278300
2022-09-15T02:25:41.168Z,9.278376
2022-09-15T02:26:41.156Z,9.278389
2022-09-15T02:27:41.153Z,9.278234
2022-09-15T02:28:41.143Z,9.278427
2022-09-15T02:29:41.102Z,9.278353
2022-09-15T02:30:41.135Z,9.278240
2022-09-15T02:31:41.134Z,9.278357
2022-09-15T02:32:41.068Z,9.278295
2022-09-15T02:33:41.023Z,9.278276
2022-09-15T02:34:41.005Z,9.278275
2022-09-15T02:35:40.998Z,9.278401
2022-09-15T02:36:40.970Z,9.278301
2022-09-15T02:37:40.979Z,9.278452
2022-09-15T02:38:41.022Z,9.278522
2022-09-15T02:39:40.912Z,9.278461
2022-09-15T02:40:40.918Z,9.278327
2022-09-15T02:41:40.992Z,9.278326
2022-09-15T02:42:40.897Z,9.278292
2022-09-15T02:43:40.991Z,9.278193
2022-09-15T02:44:40.837Z,9.278277
2022-09-15T02:45:40.903Z,9.278178
2022-09-15T02:46:40.809Z,9.278284
2022-09-15T02:47:40.811Z,9.278298
2022-09-15T02:48:40.844Z,9.278323
2022-09-15T02:49:40.757Z,9.278365
2022-09-15T02:50:40.744Z,9.278228
2022-09-15T02:51:40.734Z,9.278259
2022-09-15T02:52:40.769Z,9.278425
2022-09-15T02:53:40.679Z,9.278402
2022-09-15T02:54:40.686Z,9.278463
2022-09-15T02:55:40.651Z,9.278364
2022-09-15T02:56:40.638Z,9.278384
2022-09-15T02:57:40.641Z,9.278440
2022-09-15T02:58:40.593Z,9.278394
2022-09-15T02:59:40.585Z,9.278293
2022-09-15T03:00:40.577Z,9.278345
2022-09-15T03:01:40.573Z,9.278295
2022-09-15T03:02:40.637Z,9.278329
2022-09-15T03:03:42.937Z,9.278374
2022-09-15T03:04:41.499Z,9.278326
2022-09-15T03:05:40.488Z,9.278370
2022-09-15T03:06:40.448Z,9.278326
2022-09-15T03:07:40.463Z,9.278261
2022-09-15T03:08:40.423Z,9.278365
2022-09-15T03:09:40.398Z,9.278309
2022-09-15T03:10:40.385Z,9.278378
2022-09-15T03:11:40.381Z,9.278254
2022-09-15T03:12:40.515Z,9.278240
2022-09-15T03:13:40.334Z,9.278231
2022-09-15T03:14:40.376Z,9.278333
2022-09-15T03:15:40.305Z,9.278291
2022-09-15T03:16:40.389Z,9.278230
2022-09-15T03:17:40.303Z,9.278236
2022-09-15T03:18:40.269Z,9.278098
2022-09-15T03:19:40.231Z,9.278240
2022-09-15T03:20:40.221Z,9.278298
2022-09-15T03:21:40.296Z,9.278250
2022-09-15T03:22:40.274Z,9.278191
2022-09-15T03:23:40.158Z,9.278174
2022-09-15T03:24:40.145Z,9.278351
2022-09-15T03:25:40.145Z,9.278213
2022-09-15T03:26:40.112Z,9.278208
2022-09-15T03:27:40.124Z,9.278144
2022-09-15T03:28:40.139Z,9.278248
2022-09-15T03:29:40.071Z,9.278295
2022-09-15T03:30:40.038Z,9.278072
2022-09-15T03:31:40.101Z,9.278098
2022-09-15T03:32:41.037Z,9.278072
2022-09-15T03:33:40.006Z,9.278119
2022-09-15T03:34:39.980Z,9.278154
2022-09-15T03:35:39.967Z,9.278254
2022-09-15T03:36:40.002Z,9.278254
2022-09-15T03:37:39.979Z,9.278347
2022-09-15T03:38:39.941Z,9.278140
2022-09-15T03:39:39.902Z,9.278155
2022-09-15T03:40:39.874Z,9.278219
2022-09-15T03:41:39.853Z,9.278326
2022-09-15T03:42:39.978Z,9.278372
2022-09-15T03:43:39.828Z,9.278215
2022-09-15T03:44:39.822Z,9.278232
2022-09-15T03:45:39.820Z,9.278284
2022-09-15T03:46:39.793Z,9.278235
2022-09-15T03:47:39.796Z,9.278348
2022-09-15T03:48:39.801Z,9.278267
2022-09-15T03:49:39.770Z,9.278254
2022-09-15T03:50:39.711Z,9.278239
2022-09-15T03:51:39.682Z,9.278359
2022-09-15T03:52:39.818Z,9.278394
2022-09-15T03:53:39.658Z,9.278400
2022-09-15T03:54:39.645Z,9.278316
2022-09-15T03:55:39.646Z,9.278358
2022-09-15T03:56:39.610Z,9.278334
2022-09-15T03:57:39.628Z,9.278329
2022-09-15T03:58:39.609Z,9.278270
2022-09-15T03:59:39.576Z,9.278147
2022-09-15T04:00:39.582Z,9.278262
2022-09-15T04:01:39.576Z,9.278250
2022-09-15T04:02:39.542Z,9.278324
2022-09-15T04:03:45.184Z,9.278331
2022-09-15T04:04:41.471Z,9.278285
2022-09-15T04:05:39.462Z,9.278255
2022-09-15T04:06:39.432Z,9.278331
2022-09-15T04:07:39.441Z,9.278337
2022-09-15T04:08:39.395Z,9.278387
2022-09-15T04:09:39.384Z,9.278379
2022-09-15T04:10:39.363Z,9.278466
2022-09-15T04:11:39.348Z,9.278394
2022-09-15T04:12:39.367Z,9.278337
2022-09-15T04:13:39.310Z,9.278266
2022-09-15T04:14:39.303Z,9.278189
2022-09-15T04:15:39.286Z,9.278249
2022-09-15T04:16:39.335Z,9.278258
2022-09-15T04:17:39.287Z,9.278274
2022-09-15T04:18:39.241Z,9.278362
2022-09-15T04:19:39.213Z,9.278334
2022-09-15T04:20:39.204Z,9.278318
2022-09-15T04:21:39.176Z,9.278343
2022-09-15T04:22:39.194Z,9.278359
2022-09-15T04:23:39.146Z,9.278414
2022-09-15T04:24:39.130Z,9.278344
2022-09-15T04:25:39.107Z,9.278438
2022-09-15T04:26:39.133Z,9.278454
2022-09-15T04:27:39.117Z,9.278412
2022-09-15T04:28:39.069Z,9.278422
2022-09-15T04:29:39.055Z,9.278466
2022-09-15T04:30:39.028Z,9.278490
2022-09-15T04:31:39.114Z,9.278301
2022-09-15T04:32:39.029Z,9.278399
2022-09-15T04:33:39.000Z,9.278443
2022-09-15T04:34:41.350Z,9.278559
2022-09-15T04:35:39.946Z,9.278214
2022-09-15T04:36:38.928Z,9.278119
2022-09-15T04:37:38.930Z,9.278070
2022-09-15T04:38:38.885Z,9.277952
2022-09-15T04:39:38.893Z,9.278096
2022-09-15T04:40:38.876Z,9.278113
2022-09-15T04:41:38.849Z,9.278248
2022-09-15T04:42:38.849Z,9.278348
2022-09-15T04:43:38.803Z,9.278344
2022-09-15T04:44:38.785Z,9.278387
2022-09-15T04:45:38.776Z,9.278222
2022-09-15T04:46:38.839Z,9.278239
2022-09-15T04:47:38.757Z,9.278242
2022-09-15T04:48:38.709Z,9.278206
2022-09-15T04:49:38.700Z,9.278415
2022-09-15T04:50:38.724Z,9.278425
2022-09-15T04:51:38.671Z,9.278329
2022-09-15T04:52:38.674Z,9.278315
2022-09-15T04:53:38.629Z,9.278306
2022-09-15T04:54:38.622Z,9.278263
2022-09-15T04:55:38.594Z,9.278267
2022-09-15T04:56:38.582Z,9.278359
2022-09-15T04:57:38.590Z,9.278309
2022-09-15T04:58:38.544Z,9.278418
2022-09-15T04:59:38.529Z,9.278408
2022-09-15T05:00:38.622Z,9.278380
2022-09-15T05:01:38.531Z,9.278413
2022-09-15T05:02:38.517Z,9.278370
2022-09-15T05:03:38.453Z,9.278481
2022-09-15T05:04:38.457Z,9.278492
2022-09-15T05:05:38.426Z,9.278379
2022-09-15T05:06:38.427Z,9.278431
2022-09-15T05:07:38.418Z,9.278321
2022-09-15T05:08:38.376Z,9.278356
2022-09-15T05:09:38.363Z,9.278222
2022-09-15T05:10:38.363Z,9.278328
2022-09-15T05:11:38.340Z,9.278330
2022-09-15T05:12:38.340Z,9.278270
2022-09-15T05:13:38.293Z,9.278207
2022-09-15T05:14:38.270Z,9.278267
2022-09-15T05:15:38.270Z,9.278300
2022-09-15T05:16:38.316Z,9.278324
2022-09-15T05:17:38.245Z,9.278287
2022-09-15T05:18:38.203Z,9.278275
2022-09-15T05:19:38.181Z,9.278277
2022-09-15T05:20:38.223Z,9.278297
2022-09-15T05:21:38.154Z,9.278212
2022-09-15T05:22:41.646Z,9.278332
2022-09-15T05:23:39.128Z,9.278330
2022-09-15T05:24:38.115Z,9.278371
2022-09-15T05:25:38.089Z,9.278253
2022-09-15T05:26:38.111Z,9.278322
2022-09-15T05:27:38.089Z,9.278354
2022-09-15T05:28:38.063Z,9.278346
2022-09-15T05:29:38.024Z,9.278358
2022-09-15T05:30:41.448Z,9.278318
2022-09-15T05:31:40.078Z,9.278250
2022-09-15T05:32:37.972Z,9.278245
2022-09-15T05:33:37.967Z,9.278262
2022-09-15T05:34:37.941Z,9.278245
2022-09-15T05:35:37.936Z,9.278280
2022-09-15T05:36:37.945Z,9.278333
2022-09-15T05:37:37.893Z,9.278371
2022-09-15T05:38:37.934Z,9.278306
2022-09-15T05:39:37.858Z,9.278281
2022-09-15T05:40:37.829Z,9.278301
2022-09-15T05:41:37.876Z,9.278207
2022-09-15T05:42:37.807Z,9.278229
2022-09-15T05:43:37.784Z,9.278265
2022-09-15T05:44:37.766Z,9.278340
2022-09-15T05:45:37.751Z,9.278303
2022-09-15T05:46:37.797Z,9.278392
2022-09-15T05:47:37.712Z,9.278193
2022-09-15T05:48:37.712Z,9.278219
2022-09-15T05:49:37.827Z,9.278216
2022-09-15T05:50:37.689Z,9.278213
2022-09-15T05:51:37.740Z,9.278197
2022-09-15T05:52:37.646Z,9.278261
2022-09-15T05:53:37.613Z,9.278196
2022-09-15T05:54:37.612Z,9.278214
2022-09-15T05:55:37.594Z,9.278249
2022-09-15T05:56:37.615Z,9.278221
2022-09-15T05:57:37.548Z,9.278271
2022-09-15T05:58:37.533Z,9.278276
2022-09-15T05:59:37.539Z,9.278172
2022-09-15T06:00:37.496Z,9.278089
2022-09-15T06:01:37.570Z,9.278048
2022-09-15T06:02:37.489Z,9.278225
2022-09-15T06:03:37.478Z,9.278215
2022-09-15T06:04:37.519Z,9.278281
2022-09-15T06:05:37.431Z,9.278332
2022-09-15T06:06:37.552Z,9.278429
2022-09-15T06:07:37.397Z,9.278328
2022-09-15T06:08:37.387Z,9.278301
2022-09-15T06:09:37.366Z,9.278275
2022-09-15T06:10:37.401Z,9.278249
2022-09-15T06:11:37.354Z,9.278340
2022-09-15T06:12:37.312Z,9.278203
2022-09-15T06:13:37.297Z,9.278180
2022-09-15T06:14:37.312Z,9.278227
2022-09-15T06:15:37.265Z,9.278255
2022-09-15T06:16:37.344Z,9.278206
2022-09-15T06:17:37.344Z,9.278257
2022-09-15T06:18:37.259Z,9.278201
2022-09-15T06:19:37.241Z,9.278172
2022-09-15T06:20:37.185Z,9.278105
2022-09-15T06:21:37.207Z,9.278234
2022-09-15T06:22:37.153Z,9.278160
2022-09-15T06:23:37.143Z,9.278203
2022-09-15T06:24:37.117Z,9.278160
2022-09-15T06:25:37.129Z,9.278160
2022-09-15T06:26:37.114Z,9.278082
2022-09-15T06:27:37.114Z,9.278069
2022-09-15T06:28:37.041Z,9.278181
2022-09-15T06:29:37.031Z,9.278082
2022-09-15T06:30:37.001Z,9.277957
2022-09-15T06:31:37.059Z,9.277869
2022-09-15T06:32:36.972Z,9.277966
2022-09-15T06:33:36.957Z,9.277997
2022-09-15T06:34:36.933Z,9.278024
2022-09-15T06:35:36.951Z,9.277777
2022-09-15T06:36:36.982Z,9.277781
2022-09-15T06:37:36.884Z,9.278145
2022-09-15T06:38:36.882Z,9.278140
2022-09-15T06:39:36.858Z,9.278320
2022-09-15T06:40:36.848Z,9.278478
2022-09-15T06:42:00.717Z,9.278407
2022-09-15T06:42:38.808Z,9.278277
2022-09-15T06:43:36.787Z,9.278054
2022-09-15T06:44:36.773Z,9.277919
2022-09-15T06:45:36.755Z,9.278060
2022-09-15T06:46:36.834Z,9.278041
2022-09-15T06:47:36.753Z,9.278197
2022-09-15T06:48:36.729Z,9.278169
2022-09-15T06:49:36.708Z,9.278111
2022-09-15T06:50:36.676Z,9.278100
2022-09-15T06:51:36.677Z,9.278244
2022-09-15T06:52:36.625Z,9.278255
2022-09-15T06:53:36.621Z,9.278160
2022-09-15T06:54:36.598Z,9.278210
2022-09-15T06:55:36.569Z,9.278242
2022-09-15T06:56:38.272Z,9.278261
2022-09-15T06:57:37.536Z,9.278270
2022-09-15T06:58:36.537Z,9.278318
2022-09-15T06:59:36.512Z,9.278322
2022-09-15T07:00:36.486Z,9.278320
2022-09-15T07:01:36.501Z,9.278230
2022-09-15T07:02:36.549Z,9.278175
2022-09-15T07:03:37.487Z,9.278249
2022-09-15T07:04:36.427Z,9.278256
2022-09-15T07:05:36.456Z,9.278355
2022-09-15T07:06:36.426Z,9.278441
2022-09-15T07:07:36.379Z,9.278386
2022-09-15T07:08:36.472Z,9.278313
2022-09-15T07:09:38.857Z,9.278314
2022-09-15T07:10:36.366Z,9.278284
2022-09-15T07:11:36.342Z,9.278258
2022-09-15T07:12:36.329Z,9.278104
2022-09-15T07:13:36.272Z,9.278115
2022-09-15T07:14:36.259Z,9.278367
2022-09-15T07:15:36.241Z,9.278430
2022-09-15T07:16:36.321Z,9.278447
2022-09-15T07:17:36.212Z,9.278502
2022-09-15T07:18:40.965Z,9.278566
2022-09-15T07:19:38.170Z,9.278495
2022-09-15T07:20:36.154Z,9.278437
2022-09-15T07:21:36.168Z,9.278421
2022-09-15T07:22:36.123Z,9.278352
2022-09-15T07:23:36.122Z,9.278498
2022-09-15T07:24:36.194Z,9.278558
2022-09-15T07:25:36.094Z,9.278478
2022-09-15T07:26:36.109Z,9.278524
2022-09-15T07:27:36.042Z,9.278449
2022-09-15T07:28:36.018Z,9.278351
2022-09-15T07:29:37.943Z,9.278270
2022-09-15T07:30:37.518Z,9.278412
2022-09-15T07:31:36.085Z,9.278339
2022-09-15T07:32:35.973Z,9.278489
2022-09-15T07:33:35.940Z,9.278388
2022-09-15T07:34:35.957Z,9.278304
2022-09-15T07:35:35.907Z,9.278243
2022-09-15T07:36:35.926Z,9.278293
2022-09-15T07:37:35.882Z,9.278327
2022-09-15T07:38:35.873Z,9.278361
2022-09-15T07:39:35.957Z,9.278335
2022-09-15T07:40:35.881Z,9.278341
2022-09-15T07:41:35.865Z,9.278334
2022-09-15T07:42:35.815Z,9.278448
2022-09-15T07:43:35.771Z,9.278380
2022-09-15T07:44:35.773Z,9.278358
2022-09-15T07:45:35.745Z,9.278338
2022-09-15T07:46:35.805Z,9.278328
2022-09-15T07:47:35.722Z,9.278279
2022-09-15T07:48:35.677Z,9.278326
2022-09-15T07:49:35.707Z,9.278319
2022-09-15T07:50:35.652Z,9.278354
2022-09-15T07:51:35.664Z,9.278353
2022-09-15T07:52:35.652Z,9.278341
2022-09-15T07:53:35.611Z,9.278440
2022-09-15T07:54:35.573Z,9.278358
2022-09-15T07:55:35.610Z,9.278431
2022-09-15T07:56:35.599Z,9.278398
2022-09-15T07:57:35.545Z,9.278397
2022-09-15T07:58:35.520Z,9.278410
2022-09-15T07:59:38.252Z,9.278339
2022-09-15T08:00:37.555Z,9.278343
2022-09-15T08:01:35.549Z,9.278300
2022-09-15T08:02:35.462Z,9.278361
2022-09-15T08:03:36.444Z,9.278473
2022-09-15T08:04:35.428Z,9.278521
2022-09-15T08:05:39.433Z,9.278480
2022-09-15T08:06:37.415Z,9.278402
2022-09-15T08:07:35.375Z,9.278346
2022-09-15T08:08:35.357Z,9.278370
2022-09-15T08:09:35.331Z,9.278388
2022-09-15T08:10:35.331Z,9.278442
2022-09-15T08:11:35.371Z,9.278431
2022-09-15T08:12:35.298Z,9.278408
2022-09-15T08:13:35.263Z,9.278391
2022-09-15T08:14:35.253Z,9.278319
2022-09-15T08:15:35.241Z,9.278393
2022-09-15T08:16:35.293Z,9.278429
2022-09-15T08:17:35.196Z,9.278430
2022-09-15T08:18:35.185Z,9.278428
2022-09-15T08:19:35.175Z,9.278458
2022-09-15T08:20:35.160Z,9.278462
2022-09-15T08:21:35.188Z,9.278511
2022-09-15T08:22:35.116Z,9.278484
2022-09-15T08:23:35.112Z,9.278492
2022-09-15T08:24:35.079Z,9.278511
2022-09-15T08:25:35.094Z,9.278502
2022-09-15T08:26:35.078Z,9.278475
2022-09-15T08:27:35.041Z,9.278457
2022-09-15T08:28:35.038Z,9.278410
2022-09-15T08:29:36.011Z,9.278461
2022-09-15T08:30:34.995Z,9.278630
2022-09-15T08:31:35.129Z,9.278600
2022-09-15T08:32:34.974Z,9.278608
2022-09-15T08:33:35.940Z,9.278494
2022-09-15T08:34:34.934Z,9.278470
2022-09-15T08:35:34.902Z,9.278337
2022-09-15T08:36:34.923Z,9.278600
2022-09-15T08:37:34.890Z,9.278318
2022-09-15T08:38:34.852Z,9.278341
2022-09-15T08:39:34.829Z,9.278316
2022-09-15T08:40:34.924Z,9.278263
2022-09-15T08:41:34.818Z,9.278251
2022-09-15T08:42:34.774Z,9.278233
2022-09-15T08:43:34.759Z,9.278330
2022-09-15T08:44:34.737Z,9.278434
2022-09-15T08:45:34.724Z,9.278473
2022-09-15T08:46:34.786Z,9.278475
2022-09-15T08:47:34.700Z,9.278499
2022-09-15T08:48:34.672Z,9.278482
2022-09-15T08:49:51.081Z,9.278558
2022-09-15T08:50:36.649Z,9.278555
2022-09-15T08:51:34.657Z,9.278497
2022-09-15T08:52:34.607Z,9.278499
2022-09-15T08:53:34.597Z,9.278501
2022-09-15T08:54:34.587Z,9.278511
2022-09-15T08:55:34.559Z,9.278458
2022-09-15T08:56:34.565Z,9.278497
2022-09-15T08:57:34.519Z,9.278454
2022-09-15T08:58:34.518Z,9.278477
2022-09-15T08:59:34.508Z,9.278358
2022-09-15T09:00:34.479Z,9.278311
2022-09-15T09:01:34.570Z,9.278472
2022-09-15T09:02:34.603Z,9.278418
2022-09-15T09:03:34.424Z,9.278382
2022-09-15T09:04:34.424Z,9.278368
2022-09-15T09:05:34.435Z,9.278302
2022-09-15T09:06:34.370Z,9.278259
2022-09-15T09:07:34.373Z,9.278068
2022-09-15T09:08:34.338Z,9.278246
2022-09-15T09:09:34.318Z,9.278152
2022-09-15T09:10:34.301Z,9.278162
2022-09-15T09:11:34.313Z,9.278376
2022-09-15T09:12:34.308Z,9.278400
2022-09-15T09:13:35.702Z,9.278415
2022-09-15T09:14:35.245Z,9.278326
2022-09-15T09:15:34.253Z,9.278334
2022-09-15T09:16:34.234Z,9.278385
2022-09-15T09:17:34.232Z,9.278547
2022-09-15T09:18:34.158Z,9.278516
2022-09-15T09:19:34.165Z,9.278483
2022-09-15T09:20:34.124Z,9.278322
2022-09-15T09:21:34.141Z,9.278300
2022-09-15T09:22:34.094Z,9.278305
2022-09-15T09:23:34.086Z,9.278390
2022-09-15T09:24:34.053Z,9.278355
2022-09-15T09:25:34.044Z,9.278268
2022-09-15T09:26:34.049Z,9.278304
2022-09-15T09:27:34.011Z,9.278312
2022-09-15T09:28:33.997Z,9.278272
2022-09-15T09:29:33.979Z,9.278282
2022-09-15T09:30:34.089Z,9.278316
2022-09-15T09:31:33.964Z,9.278281
2022-09-15T09:32:33.915Z,9.278306
2022-09-15T09:33:33.920Z,9.278255
2022-09-15T09:34:33.910Z,9.278341
2022-09-15T09:35:33.871Z,9.278257
2022-09-15T09:36:33.886Z,9.278333
2022-09-15T09:37:33.835Z,9.278310
2022-09-15T09:38:33.839Z,9.278372
2022-09-15T09:39:33.803Z,9.278464
2022-09-15T09:40:33.882Z,9.278369
2022-09-15T09:41:33.799Z,9.278349
2022-09-15T09:42:33.754Z,9.278344
2022-09-15T09:43:33.733Z,9.278374
2022-09-15T09:44:33.725Z,9.278274
2022-09-15T09:45:33.700Z,9.278336
2022-09-15T09:46:33.804Z,9.278408
2022-09-15T09:47:33.674Z,9.278313
2022-09-15T09:48:33.661Z,9.278309
2022-09-15T09:49:33.651Z,9.278326
2022-09-15T09:50:33.618Z,9.278315
2022-09-15T09:51:33.707Z,9.278312
2022-09-15T09:52:33.587Z,9.278316
2022-09-15T09:53:33.579Z,9.278285
2022-09-15T09:54:33.555Z,9.278276
2022-09-15T09:55:33.538Z,9.278234
2022-09-15T09:56:33.555Z,9.278204
2022-09-15T09:57:35.773Z,9.278330
2022-09-15T09:58:33.512Z,9.278348
2022-09-15T09:59:33.479Z,9.278237
2022-09-15T10:00:33.474Z,9.278252
2022-09-15T10:01:33.497Z,9.278301
2022-09-15T10:02:33.433Z,9.278301
2022-09-15T10:03:33.418Z,9.278315
2022-09-15T10:04:33.422Z,9.278338
2022-09-15T10:05:33.383Z,9.278326
2022-09-15T10:06:33.396Z,9.278298
2022-09-15T10:07:33.345Z,9.278295
2022-09-15T10:08:33.331Z,9.278329
2022-09-15T10:09:33.603Z,9.278289
2022-09-15T10:10:34.299Z,9.278327
2022-09-15T10:11:33.349Z,9.278314
2022-09-15T10:12:33.256Z,9.278337
2022-09-15T10:13:33.266Z,9.278332
2022-09-15T10:14:33.224Z,9.278282
2022-09-15T10:15:33.232Z,9.278273
2022-09-15T10:16:33.293Z,9.278350
2022-09-15T10:17:33.183Z,9.278366
2022-09-15T10:18:33.181Z,9.278355
2022-09-15T10:19:33.160Z,9.278333
2022-09-15T10:20:33.147Z,9.278284
2022-09-15T10:21:33.145Z,9.278312
2022-09-15T10:22:33.090Z,9.278306
2022-09-15T10:23:33.070Z,9.278228
2022-09-15T10:24:33.048Z,9.278319
2022-09-15T10:25:55.143Z,9.278316
2022-09-15T10:26:35.081Z,9.278274
2022-09-15T10:27:32.991Z,9.278244
2022-09-15T10:28:32.997Z,9.278222
2022-09-15T10:29:32.964Z,9.278186
2022-09-15T10:30:32.967Z,9.278218
2022-09-15T10:31:33.035Z,9.278300
2022-09-15T10:32:32.924Z,9.278357
2022-09-15T10:33:32.888Z,9.278191
2022-09-15T10:34:32.887Z,9.278255
2022-09-15T10:35:32.902Z,9.278335
2022-09-15T10:36:32.891Z,9.278244
2022-09-15T10:37:32.819Z,9.278270
2022-09-15T10:38:32.812Z,9.278269
2022-09-15T10:39:32.805Z,9.278292
2022-09-15T10:40:32.870Z,9.278277
2022-09-15T10:41:32.780Z,9.278275
2022-09-15T10:42:32.736Z,9.278231
2022-09-15T10:43:32.711Z,9.278247
2022-09-15T10:44:32.697Z,9.278287
2022-09-15T10:45:32.708Z,9.278299
2022-09-15T10:46:34.613Z,9.278285
2022-09-15T10:47:32.639Z,9.278266
2022-09-15T10:48:32.626Z,9.278252
2022-09-15T10:49:32.651Z,9.278272
2022-09-15T10:50:32.591Z,9.278191
2022-09-15T10:51:32.623Z,9.278258
2022-09-15T10:52:32.572Z,9.278234
2022-09-15T10:53:32.564Z,9.278184
2022-09-15T10:54:32.529Z,9.278168
2022-09-15T10:55:51.491Z,9.278130
2022-09-15T10:56:34.534Z,9.278197
2022-09-15T10:57:32.553Z,9.278363
2022-09-15T10:58:32.491Z,9.278497
2022-09-15T10:59:32.446Z,9.278337
2022-09-15T11:00:32.476Z,9.278027
2022-09-15T11:01:32.466Z,9.277987
2022-09-15T11:02:32.454Z,9.278063
2022-09-15T11:03:32.371Z,9.278240
2022-09-15T11:04:32.372Z,9.278120
2022-09-15T11:05:32.349Z,9.278414
2022-09-15T11:06:32.368Z,9.278266
2022-09-15T11:07:32.337Z,9.278393
2022-09-15T11:08:32.351Z,9.278497
2022-09-15T11:09:32.288Z,9.278497
2022-09-15T11:10:32.269Z,9.278435
2022-09-15T11:11:32.282Z,9.278312
2022-09-15T11:12:32.231Z,9.278256
2022-09-15T11:13:33.008Z,9.278300
2022-09-15T11:14:33.192Z,9.278647
2022-09-15T11:15:32.183Z,9.278450
2022-09-15T11:16:32.274Z,9.278375
2022-09-15T11:17:32.169Z,9.278423
2022-09-15T11:18:32.168Z,9.278514
2022-09-15T11:19:32.191Z,9.278376
2022-09-15T11:20:32.092Z,9.278469
2022-09-15T11:21:32.135Z,9.278477
2022-09-15T11:22:32.064Z,9.278417
2022-09-15T11:23:32.045Z,9.278413
2022-09-15T11:24:32.026Z,9.278395
2022-09-15T11:25:32.010Z,9.278401
2022-09-15T11:26:32.068Z,9.278473
2022-09-15T11:27:32.069Z,9.278385
2022-09-15T11:28:32.037Z,9.278308
2022-09-15T11:29:32.020Z,9.278236
2022-09-15T11:30:31.946Z,9.278384
2022-09-15T11:31:32.025Z,9.278434
2022-09-15T11:32:31.947Z,9.278555
2022-09-15T11:33:31.885Z,9.278594
2022-09-15T11:34:31.870Z,9.278606
2022-09-15T11:35:31.866Z,9.278401
2022-09-15T11:36:31.905Z,9.278746
2022-09-15T11:37:31.832Z,9.278605
2022-09-15T11:38:31.789Z,9.278402
2022-09-15T11:39:31.771Z,9.278452
2022-09-15T11:40:31.812Z,9.278363
2022-09-15T11:41:31.737Z,9.278370
2022-09-15T11:42:31.761Z,9.278380
2022-09-15T11:43:31.720Z,9.278428
2022-09-15T11:44:31.695Z,9.278317